createdAt,value
2023-05-09T00:00:45.454Z,6.82
2023-05-09T00:03:12.712Z,6.84
2023-05-09T00:05:39.101Z,6.81
2023-05-09T00:08:05.554Z,6.79
2023-05-09T00:10:31.887Z,6.80
2023-05-09T00:12:58.871Z,6.78
2023-05-09T00:15:26.018Z,6.78
2023-05-09T00:17:52.995Z,6.79
2023-05-09T00:20:20.114Z,6.77
2023-05-09T00:22:46.505Z,6.70
2023-05-09T00:25:12.972Z,6.65
2023-05-09T00:27:39.553Z,6.65
2023-05-09T00:30:06.659Z,6.64
2023-05-09T00:32:33.483Z,6.65
2023-05-09T00:34:59.829Z,6.66
2023-05-09T00:37:26.335Z,6.62
2023-05-09T00:39:52.679Z,6.63
2023-05-09T00:42:19.078Z,6.69
2023-05-09T00:44:45.444Z,6.68
2023-05-09T00:47:11.750Z,6.71
2023-05-09T00:49:38.056Z,6.69
2023-05-09T00:52:04.960Z,6.64
2023-05-09T00:54:31.298Z,6.60
2023-05-09T00:56:57.653Z,6.55
2023-05-09T00:59:24.036Z,6.42
2023-05-09T01:01:50.730Z,6.40
2023-05-09T01:04:17.212Z,6.35
2023-05-09T01:06:56.446Z,6.36
2023-05-09T01:09:28.794Z,6.35
2023-05-09T01:12:10.613Z,6.40
2023-05-09T01:14:55.561Z,6.26
2023-05-09T01:17:33.350Z,6.35
2023-05-09T01:20:11.181Z,6.39
2023-05-09T01:22:38.224Z,6.31
2023-05-09T01:25:23.176Z,6.31
2023-05-09T01:27:51.467Z,6.40
2023-05-09T01:30:17.792Z,6.46
2023-05-09T01:32:44.643Z,6.48
2023-05-09T01:35:12.039Z,6.43
2023-05-09T01:37:39.685Z,6.46
2023-05-09T01:40:16.702Z,6.48
2023-05-09T01:43:06.327Z,6.50
2023-05-09T01:45:33.015Z,6.51
2023-05-09T01:47:59.382Z,6.53
2023-05-09T01:50:25.722Z,6.52
2023-05-09T01:52:52.663Z,6.50
2023-05-09T01:55:19.878Z,6.51
2023-05-09T01:57:46.177Z,6.52
2023-05-09T02:00:13.356Z,6.50
2023-05-09T02:02:40.097Z,6.52
2023-05-09T02:05:07.042Z,6.54
2023-05-09T02:07:33.431Z,6.52
2023-05-09T02:09:59.748Z,6.54
2023-05-09T02:12:26.211Z,6.56
2023-05-09T02:14:52.627Z,6.59
2023-05-09T02:17:19.334Z,6.64
2023-05-09T02:19:45.941Z,6.66
2023-05-09T02:22:12.455Z,6.67
2023-05-09T02:24:38.872Z,6.68
2023-05-09T02:27:05.306Z,6.66
2023-05-09T02:29:39.831Z,6.65
2023-05-09T02:32:10.586Z,6.65
2023-05-09T02:34:37.609Z,6.67
2023-05-09T02:37:04.056Z,6.65
2023-05-09T02:39:30.890Z,6.62
2023-05-09T02:41:57.271Z,6.63
2023-05-09T02:44:23.620Z,6.65
2023-05-09T02:46:49.933Z,6.60
2023-05-09T02:49:31.526Z,6.65
2023-05-09T02:51:58.971Z,6.64
2023-05-09T02:54:34.359Z,6.64
2023-05-09T02:57:00.843Z,6.61
2023-05-09T02:59:27.505Z,6.62
2023-05-09T03:01:53.897Z,6.64
2023-05-09T03:04:20.283Z,6.64
2023-05-09T03:06:46.678Z,6.61
2023-05-09T03:09:12.985Z,6.65
2023-05-09T03:11:39.401Z,6.68
2023-05-09T03:14:06.272Z,6.66
2023-05-09T03:16:32.621Z,6.67
2023-05-09T03:18:59.018Z,6.65
2023-05-09T03:21:25.767Z,6.65
2023-05-09T03:23:52.151Z,6.62
2023-05-09T03:26:19.823Z,6.64
2023-05-09T03:28:46.332Z,6.68
2023-05-09T03:31:12.783Z,6.69
2023-05-09T03:33:39.256Z,6.64
2023-05-09T03:36:05.770Z,6.62
2023-05-09T03:38:32.227Z,6.66
2023-05-09T03:40:58.745Z,6.69
2023-05-09T03:43:25.294Z,6.76
2023-05-09T03:45:51.632Z,6.78
2023-05-09T03:48:18.001Z,6.83
2023-05-09T03:50:44.340Z,6.90
2023-05-09T03:53:10.723Z,6.92
2023-05-09T03:55:37.090Z,6.90
2023-05-09T03:58:03.581Z,6.84
2023-05-09T04:00:29.973Z,6.83
2023-05-09T04:02:56.365Z,6.84
2023-05-09T04:05:22.807Z,6.97
2023-05-09T04:07:49.153Z,7.07
2023-05-09T04:10:15.534Z,7.08
2023-05-09T04:12:41.901Z,6.98
2023-05-09T04:15:08.749Z,7.05
2023-05-09T04:17:35.168Z,7.08
2023-05-09T04:20:02.069Z,7.14
2023-05-09T04:22:28.374Z,7.17
2023-05-09T04:24:54.749Z,7.20
2023-05-09T04:27:21.825Z,7.21
2023-05-09T04:29:49.354Z,7.28
2023-05-09T04:32:15.875Z,7.40
2023-05-09T04:34:42.282Z,7.49
2023-05-09T04:37:09.054Z,7.55
2023-05-09T04:39:35.440Z,7.61
2023-05-09T04:42:02.665Z,7.75
2023-05-09T04:44:29.101Z,7.81
2023-05-09T04:46:55.674Z,7.93
2023-05-09T04:49:22.027Z,8.00
2023-05-09T04:51:48.355Z,8.08
2023-05-09T04:54:14.799Z,8.18
2023-05-09T04:56:41.192Z,8.26
2023-05-09T04:59:07.619Z,8.40
2023-05-09T05:01:34.072Z,8.52
2023-05-09T05:04:00.573Z,8.73
2023-05-09T05:06:26.920Z,8.91
2023-05-09T05:08:53.320Z,9.00
2023-05-09T05:11:20.486Z,9.19
2023-05-09T05:13:47.180Z,9.38
2023-05-09T05:16:13.689Z,9.57
2023-05-09T05:18:40.141Z,9.64
2023-05-09T05:21:06.564Z,9.77
2023-05-09T05:23:32.962Z,9.90
2023-05-09T05:25:59.331Z,10.00
2023-05-09T05:28:25.731Z,10.09
2023-05-09T05:30:52.114Z,10.24
2023-05-09T05:33:18.469Z,10.36
2023-05-09T05:35:44.882Z,10.56
2023-05-09T05:38:11.241Z,10.76
2023-05-09T05:40:37.660Z,10.95
2023-05-09T05:43:03.987Z,11.15
2023-05-09T05:45:31.003Z,11.34
2023-05-09T05:47:57.877Z,11.51
2023-05-09T05:50:24.347Z,11.61
2023-05-09T05:52:50.756Z,11.73
2023-05-09T05:55:17.204Z,11.87
2023-05-09T05:57:43.753Z,11.91
2023-05-09T06:00:14.593Z,12.06
2023-05-09T06:02:44.573Z,12.19
2023-05-09T06:05:11.276Z,12.49
2023-05-09T06:07:37.689Z,12.61
2023-05-09T06:10:04.633Z,12.89
2023-05-09T06:12:31.029Z,13.11
2023-05-09T06:14:57.457Z,13.35
2023-05-09T06:17:23.838Z,13.51
2023-05-09T06:19:50.198Z,13.72
2023-05-09T06:22:16.563Z,13.60
2023-05-09T06:24:42.898Z,13.67
2023-05-09T06:27:09.237Z,13.85
2023-05-09T06:29:35.701Z,13.96
2023-05-09T06:32:02.032Z,14.39
2023-05-09T06:34:28.435Z,14.64
2023-05-09T06:36:54.886Z,14.60
2023-05-09T06:39:21.233Z,14.51
2023-05-09T06:41:47.622Z,14.77
2023-05-09T06:44:14.021Z,15.02
2023-05-09T06:46:40.478Z,15.18
2023-05-09T06:49:06.945Z,15.42
2023-05-09T06:51:33.453Z,15.40
2023-05-09T06:53:59.804Z,15.45
2023-05-09T06:56:26.930Z,15.48
2023-05-09T06:58:53.531Z,15.74
2023-05-09T07:01:19.922Z,15.96
2023-05-09T07:03:47.516Z,15.93
2023-05-09T07:06:13.914Z,16.26
2023-05-09T07:08:40.257Z,16.44
2023-05-09T07:11:06.666Z,16.34
2023-05-09T07:13:33.113Z,16.28
2023-05-09T07:15:59.534Z,16.10
2023-05-09T07:18:25.842Z,16.01
2023-05-09T07:20:52.268Z,16.18
2023-05-09T07:23:18.705Z,15.92
2023-05-09T07:25:45.456Z,16.16
2023-05-09T07:28:13.141Z,16.29
2023-05-09T07:30:39.475Z,16.56
2023-05-09T07:33:06.737Z,16.32
2023-05-09T07:35:33.273Z,15.89
2023-05-09T07:37:59.613Z,15.98
2023-05-09T07:40:26.031Z,15.86
2023-05-09T07:42:55.137Z,16.36
2023-05-09T07:45:23.724Z,16.38
2023-05-09T07:47:50.337Z,16.59
2023-05-09T07:50:17.462Z,16.71
2023-05-09T07:52:43.873Z,16.42
2023-05-09T07:55:10.427Z,16.02
2023-05-09T07:57:36.778Z,16.16
2023-05-09T08:00:03.488Z,16.01
2023-05-09T08:02:29.943Z,16.32
2023-05-09T08:04:56.320Z,16.11
2023-05-09T08:07:22.693Z,15.87
2023-05-09T08:09:49.031Z,15.93
2023-05-09T08:12:15.450Z,15.87
2023-05-09T08:14:41.838Z,15.83
2023-05-09T08:17:08.291Z,16.10
2023-05-09T08:19:34.659Z,16.33
2023-05-09T08:22:01.273Z,16.92
2023-05-09T08:24:27.629Z,16.37
2023-05-09T08:26:54.062Z,16.28
2023-05-09T08:29:20.475Z,16.53
2023-05-09T08:31:46.845Z,16.68
2023-05-09T08:34:13.284Z,16.79
2023-05-09T08:36:40.954Z,16.35
2023-05-09T08:39:07.356Z,16.08
2023-05-09T08:41:36.036Z,16.01
2023-05-09T08:44:02.443Z,16.50
2023-05-09T08:46:34.136Z,16.67
2023-05-09T08:49:00.858Z,16.69
2023-05-09T08:51:27.177Z,16.13
2023-05-09T08:53:53.523Z,16.35
2023-05-09T08:56:19.899Z,16.38
2023-05-09T08:58:46.280Z,16.72
2023-05-09T09:01:13.335Z,17.41
2023-05-09T09:03:39.733Z,16.66
2023-05-09T09:06:07.473Z,16.52
2023-05-09T09:08:33.804Z,16.41
2023-05-09T09:11:00.251Z,16.55
2023-05-09T09:13:26.605Z,16.28
2023-05-09T09:15:53.071Z,16.67
2023-05-09T09:18:21.394Z,17.40
2023-05-09T09:20:48.544Z,16.36
2023-05-09T09:23:17.078Z,16.01
2023-05-09T09:25:45.387Z,16.37
2023-05-09T09:28:11.755Z,16.79
2023-05-09T09:30:43.404Z,16.96
2023-05-09T09:33:09.797Z,16.81
2023-05-09T09:35:40.091Z,16.30
2023-05-09T09:38:06.487Z,16.64
2023-05-09T09:40:32.865Z,16.42
2023-05-09T09:42:59.211Z,16.95
2023-05-09T09:45:25.519Z,16.71
2023-05-09T09:47:52.209Z,16.72
2023-05-09T09:50:19.227Z,17.21
2023-05-09T09:52:49.537Z,16.70
2023-05-09T09:55:16.136Z,17.11
2023-05-09T09:57:45.622Z,16.98
2023-05-09T10:00:13.210Z,17.63
2023-05-09T10:02:53.041Z,17.35
2023-05-09T10:05:25.414Z,17.70
2023-05-09T10:07:56.235Z,17.66
2023-05-09T10:10:22.693Z,17.72
2023-05-09T10:12:49.016Z,17.88
2023-05-09T10:15:16.497Z,17.34
2023-05-09T10:17:43.232Z,17.46
2023-05-09T10:20:09.972Z,17.57
2023-05-09T10:22:36.524Z,17.59
2023-05-09T10:25:02.868Z,17.32
2023-05-09T10:27:31.173Z,17.27
2023-05-09T10:30:01.516Z,17.02
2023-05-09T10:32:29.350Z,17.32
2023-05-09T10:34:58.320Z,17.58
2023-05-09T10:37:24.699Z,17.91
2023-05-09T10:39:53.528Z,17.58
2023-05-09T10:42:20.167Z,17.62
2023-05-09T10:44:46.741Z,16.86
2023-05-09T10:47:13.294Z,16.90
2023-05-09T10:49:39.615Z,17.56
2023-05-09T10:52:06.204Z,17.62
2023-05-09T10:54:33.608Z,16.87
2023-05-09T10:57:00.764Z,16.88
2023-05-09T10:59:33.173Z,16.91
2023-05-09T11:02:02.784Z,17.11
2023-05-09T11:04:29.458Z,17.53
2023-05-09T11:06:57.713Z,16.99
2023-05-09T11:09:28.389Z,17.01
2023-05-09T11:11:56.489Z,17.22
2023-05-09T11:14:49.429Z,17.26
2023-05-09T11:17:22.238Z,17.20
2023-05-09T11:19:50.308Z,17.85
2023-05-09T11:22:17.830Z,17.44
2023-05-09T11:24:59.537Z,17.46
2023-05-09T11:27:26.785Z,17.94
2023-05-09T11:29:53.856Z,18.05
2023-05-09T11:32:20.922Z,17.84
2023-05-09T11:34:47.360Z,18.37
2023-05-09T11:37:14.427Z,17.64
2023-05-09T11:40:00.231Z,17.62
2023-05-09T11:42:29.640Z,17.58
2023-05-09T11:44:56.442Z,17.50
2023-05-09T11:47:22.883Z,16.98
2023-05-09T11:49:49.775Z,17.68
2023-05-09T11:52:16.768Z,17.61
2023-05-09T11:54:43.320Z,17.16
2023-05-09T11:57:09.761Z,17.17
2023-05-09T11:59:36.480Z,18.03
2023-05-09T12:02:06.324Z,17.59
2023-05-09T12:04:32.875Z,17.82
2023-05-09T12:06:59.856Z,17.58
2023-05-09T12:09:29.443Z,17.13
2023-05-09T12:11:55.824Z,17.58
2023-05-09T12:14:34.698Z,17.57
2023-05-09T12:17:01.758Z,17.07
2023-05-09T12:19:30.661Z,17.35
2023-05-09T12:22:00.680Z,17.31
2023-05-09T12:24:27.389Z,17.95
2023-05-09T12:26:54.074Z,17.15
2023-05-09T12:29:20.770Z,17.48
2023-05-09T12:31:47.213Z,17.97
2023-05-09T12:34:13.740Z,17.26
2023-05-09T12:36:40.161Z,16.88
2023-05-09T12:39:10.334Z,17.12
2023-05-09T12:41:53.466Z,17.40
2023-05-09T12:44:29.279Z,17.63
2023-05-09T12:47:02.718Z,17.51
2023-05-09T12:49:29.661Z,17.71
2023-05-09T12:51:57.208Z,17.09
2023-05-09T12:54:24.562Z,17.13
2023-05-09T12:56:56.619Z,17.92
2023-05-09T12:59:24.090Z,18.20
2023-05-09T13:01:55.755Z,17.62
2023-05-09T13:04:23.478Z,17.92
2023-05-09T13:06:55.726Z,18.00
2023-05-09T13:09:22.914Z,17.42
2023-05-09T13:11:49.936Z,17.66
2023-05-09T13:14:22.700Z,17.91
2023-05-09T13:16:51.188Z,17.56
2023-05-09T13:19:17.864Z,17.55
2023-05-09T13:21:44.294Z,17.98
2023-05-09T13:24:10.740Z,18.06
2023-05-09T13:26:37.156Z,18.18
2023-05-09T13:29:03.624Z,18.38
2023-05-09T13:31:30.349Z,17.58
2023-05-09T13:33:56.706Z,17.79
2023-05-09T13:36:23.078Z,18.02
2023-05-09T13:38:49.554Z,17.80
2023-05-09T13:41:20.331Z,18.21
2023-05-09T13:43:47.040Z,18.06
2023-05-09T13:46:13.591Z,18.28
2023-05-09T13:48:40.049Z,18.23
2023-05-09T13:51:07.821Z,17.66
2023-05-09T13:53:34.535Z,17.71
2023-05-09T13:56:02.802Z,17.20
2023-05-09T13:58:29.206Z,17.80
2023-05-09T14:00:55.578Z,17.61
2023-05-09T14:03:21.998Z,17.62
2023-05-09T14:05:56.831Z,17.65
2023-05-09T14:08:23.343Z,17.46
2023-05-09T14:10:49.802Z,17.77
2023-05-09T14:13:16.294Z,18.19
2023-05-09T14:15:42.964Z,17.70
2023-05-09T14:18:09.497Z,17.83
2023-05-09T14:20:37.593Z,17.79
2023-05-09T14:23:04.074Z,17.55
2023-05-09T14:25:32.880Z,17.57
2023-05-09T14:27:59.524Z,17.69
2023-05-09T14:30:26.553Z,17.52
2023-05-09T14:32:52.883Z,17.17
2023-05-09T14:35:19.325Z,17.62
2023-05-09T14:37:45.711Z,17.52
2023-05-09T14:40:12.448Z,17.71
2023-05-09T14:42:38.976Z,17.30
2023-05-09T14:45:06.800Z,17.59
2023-05-09T14:47:35.468Z,17.60
2023-05-09T14:50:02.290Z,17.59
2023-05-09T14:52:28.960Z,17.71
2023-05-09T14:54:55.437Z,17.75
2023-05-09T14:57:22.802Z,17.81
2023-05-09T14:59:49.160Z,18.07
2023-05-09T15:02:15.543Z,18.00
2023-05-09T15:04:43.838Z,17.73
2023-05-09T15:07:13.282Z,17.32
2023-05-09T15:09:39.659Z,17.39
2023-05-09T15:12:08.854Z,17.43
2023-05-09T15:14:35.189Z,17.50
2023-05-09T15:17:04.182Z,17.71
2023-05-09T15:19:35.030Z,18.05
2023-05-09T15:22:01.676Z,17.90
2023-05-09T15:24:28.185Z,17.53
2023-05-09T15:26:54.602Z,17.54
2023-05-09T15:29:22.299Z,17.48
2023-05-09T15:31:48.955Z,17.54
2023-05-09T15:34:24.249Z,17.66
2023-05-09T15:36:50.683Z,17.34
2023-05-09T15:39:18.538Z,17.46
2023-05-09T15:41:45.162Z,17.45
2023-05-09T15:44:11.564Z,17.50
2023-05-09T15:46:38.199Z,17.43
2023-05-09T15:49:04.665Z,17.58
2023-05-09T15:51:31.695Z,17.34
2023-05-09T15:53:58.186Z,17.46
2023-05-09T15:56:24.556Z,17.26
2023-05-09T15:58:50.935Z,17.09
2023-05-09T16:01:17.399Z,17.08
2023-05-09T16:03:43.996Z,17.24
2023-05-09T16:06:10.505Z,17.18
2023-05-09T16:08:37.654Z,17.19
2023-05-09T16:11:04.694Z,17.23
2023-05-09T16:13:31.976Z,17.10
2023-05-09T16:16:00.556Z,17.15
2023-05-09T16:18:26.962Z,17.12
2023-05-09T16:20:53.293Z,17.05
2023-05-09T16:23:21.069Z,16.98
2023-05-09T16:25:49.792Z,16.99
2023-05-09T16:28:16.224Z,16.88
2023-05-09T16:30:42.621Z,17.00
2023-05-09T16:33:09.051Z,16.89
2023-05-09T16:35:37.312Z,16.84
2023-05-09T16:38:03.694Z,16.66
2023-05-09T16:40:30.107Z,16.70
2023-05-09T16:42:58.940Z,16.63
2023-05-09T16:45:25.541Z,16.69
2023-05-09T16:47:53.550Z,16.72
2023-05-09T16:50:20.049Z,16.69
2023-05-09T16:52:48.761Z,16.69
2023-05-09T16:55:15.261Z,16.67
2023-05-09T16:57:41.770Z,16.60
2023-05-09T17:00:09.680Z,16.64
2023-05-09T17:02:37.073Z,16.52
2023-05-09T17:05:04.225Z,16.54
2023-05-09T17:07:30.779Z,16.54
2023-05-09T17:09:57.169Z,16.50
2023-05-09T17:12:23.725Z,16.51
2023-05-09T17:14:50.099Z,16.58
2023-05-09T17:17:17.698Z,16.51
2023-05-09T17:19:44.132Z,16.37
2023-05-09T17:22:10.917Z,16.39
2023-05-09T17:24:37.533Z,16.36
2023-05-09T17:27:04.259Z,16.27
2023-05-09T17:29:31.101Z,16.27
2023-05-09T17:31:58.255Z,16.22
2023-05-09T17:34:24.712Z,16.13
2023-05-09T17:36:52.300Z,16.09
2023-05-09T17:39:18.628Z,16.03
2023-05-09T17:41:45.053Z,15.94
2023-05-09T17:44:11.604Z,15.89
2023-05-09T17:46:38.316Z,15.94
2023-05-09T17:49:07.630Z,15.89
2023-05-09T17:51:34.029Z,15.76
2023-05-09T17:54:00.486Z,15.68
2023-05-09T17:56:27.077Z,15.60
2023-05-09T17:58:53.830Z,15.48
2023-05-09T18:01:20.347Z,15.45
2023-05-09T18:03:46.763Z,15.32
2023-05-09T18:06:13.221Z,15.28
2023-05-09T18:08:39.610Z,15.21
2023-05-09T18:11:06.335Z,15.15
2023-05-09T18:13:34.402Z,15.17
2023-05-09T18:16:01.545Z,15.08
2023-05-09T18:18:31.224Z,15.04
2023-05-09T18:20:58.149Z,14.95
2023-05-09T18:23:25.986Z,14.91
2023-05-09T18:25:59.502Z,14.93
2023-05-09T18:28:25.945Z,14.78
2023-05-09T18:30:54.399Z,14.71
2023-05-09T18:33:22.177Z,14.70
2023-05-09T18:35:48.563Z,14.67
2023-05-09T18:38:15.024Z,14.59
2023-05-09T18:40:42.149Z,14.51
2023-05-09T18:43:08.938Z,14.48
2023-05-09T18:45:35.633Z,14.48
2023-05-09T18:48:02.655Z,14.40
2023-05-09T18:50:29.449Z,14.34
2023-05-09T18:52:55.814Z,14.32
2023-05-09T18:55:22.392Z,14.25
2023-05-09T18:57:48.916Z,14.25
2023-05-09T19:00:15.768Z,14.15
2023-05-09T19:02:42.533Z,14.09
2023-05-09T19:05:11.391Z,14.02
2023-05-09T19:07:38.135Z,14.00
2023-05-09T19:10:05.098Z,13.91
2023-05-09T19:12:35.293Z,13.87
2023-05-09T19:15:02.055Z,13.82
2023-05-09T19:17:29.204Z,13.76
2023-05-09T19:19:55.587Z,13.74
2023-05-09T19:22:21.927Z,13.67
2023-05-09T19:24:51.323Z,13.61
2023-05-09T19:27:18.258Z,13.67
2023-05-09T19:29:47.494Z,13.57
2023-05-09T19:32:17.878Z,13.45
2023-05-09T19:34:45.653Z,13.43
2023-05-09T19:37:12.010Z,13.39
2023-05-09T19:39:38.480Z,13.35
2023-05-09T19:42:04.856Z,13.33
2023-05-09T19:44:31.266Z,13.26
2023-05-09T19:46:58.555Z,13.29
2023-05-09T19:49:24.896Z,13.19
2023-05-09T19:51:52.381Z,13.19
2023-05-09T19:54:19.908Z,13.12
2023-05-09T19:56:46.254Z,13.03
2023-05-09T19:59:12.582Z,12.99
2023-05-09T20:01:39.131Z,12.91
2023-05-09T20:04:06.215Z,12.83
2023-05-09T20:06:32.628Z,12.78
2023-05-09T20:08:59.072Z,12.70
2023-05-09T20:11:27.679Z,12.64
2023-05-09T20:13:54.329Z,12.61
2023-05-09T20:16:21.336Z,12.59
2023-05-09T20:18:49.416Z,12.54
2023-05-09T20:21:18.546Z,12.52
2023-05-09T20:23:45.074Z,12.48
2023-05-09T20:26:11.464Z,12.48
2023-05-09T20:28:38.313Z,12.42
2023-05-09T20:31:05.129Z,12.40
2023-05-09T20:33:31.653Z,12.41
2023-05-09T20:35:57.970Z,12.36
2023-05-09T20:38:24.537Z,12.32
2023-05-09T20:40:50.915Z,12.28
2023-05-09T20:43:17.292Z,12.19
2023-05-09T20:45:43.786Z,12.18
2023-05-09T20:48:10.420Z,12.13
2023-05-09T20:50:36.955Z,12.04
2023-05-09T20:53:03.332Z,12.00
2023-05-09T20:55:29.713Z,11.94
2023-05-09T20:57:56.056Z,11.89
2023-05-09T21:00:22.636Z,11.79
2023-05-09T21:02:49.069Z,11.76
2023-05-09T21:05:16.924Z,11.74
2023-05-09T21:07:43.639Z,11.62
2023-05-09T21:10:10.377Z,11.57
2023-05-09T21:12:37.166Z,11.52
2023-05-09T21:15:03.723Z,11.47
2023-05-09T21:17:30.110Z,11.41
2023-05-09T21:19:56.711Z,11.40
2023-05-09T21:22:23.161Z,11.38
2023-05-09T21:24:50.785Z,11.29
2023-05-09T21:27:17.170Z,11.20
2023-05-09T21:29:43.620Z,11.17
2023-05-09T21:32:10.069Z,11.13
2023-05-09T21:34:36.464Z,11.07
2023-05-09T21:37:02.961Z,11.02
2023-05-09T21:39:29.291Z,11.02
2023-05-09T21:41:55.657Z,11.02
2023-05-09T21:44:22.276Z,10.95
2023-05-09T21:46:48.791Z,10.90
2023-05-09T21:49:16.978Z,10.87
2023-05-09T21:51:43.576Z,10.80
2023-05-09T21:54:10.836Z,10.76
2023-05-09T21:56:37.295Z,10.75
2023-05-09T21:59:03.785Z,10.71
2023-05-09T22:01:30.192Z,10.68
2023-05-09T22:03:56.701Z,10.61
2023-05-09T22:06:23.127Z,10.63
2023-05-09T22:08:51.074Z,10.56
2023-05-09T22:11:17.923Z,10.53
2023-05-09T22:13:44.311Z,10.59
2023-05-09T22:16:10.802Z,10.55
2023-05-09T22:18:37.182Z,10.54
2023-05-09T22:21:03.647Z,10.45
2023-05-09T22:23:30.586Z,10.44
2023-05-09T22:25:56.922Z,10.41
2023-05-09T22:28:23.262Z,10.37
2023-05-09T22:30:49.743Z,10.34
2023-05-09T22:33:16.158Z,10.31
2023-05-09T22:35:42.532Z,10.27
2023-05-09T22:38:08.898Z,10.18
2023-05-09T22:40:35.244Z,10.15
2023-05-09T22:43:01.628Z,10.12
2023-05-09T22:45:28.005Z,10.09
2023-05-09T22:47:54.460Z,9.99
2023-05-09T22:50:20.958Z,9.92
2023-05-09T22:52:47.411Z,9.89
2023-05-09T22:55:14.062Z,9.83
2023-05-09T22:57:41.146Z,9.79
2023-05-09T23:00:07.697Z,9.74
2023-05-09T23:02:34.061Z,9.71
2023-05-09T23:05:00.576Z,9.64
2023-05-09T23:07:26.993Z,9.61
2023-05-09T23:09:53.350Z,9.59
2023-05-09T23:12:19.778Z,9.55
2023-05-09T23:14:46.345Z,9.48
2023-05-09T23:17:12.702Z,9.48
2023-05-09T23:19:39.125Z,9.44
2023-05-09T23:22:05.480Z,9.40
2023-05-09T23:24:31.824Z,9.36
2023-05-09T23:26:58.322Z,9.30
2023-05-09T23:29:25.203Z,9.33
2023-05-09T23:31:51.687Z,9.30
2023-05-09T23:34:18.081Z,9.33
2023-05-09T23:36:44.400Z,9.29
2023-05-09T23:39:10.968Z,9.25
2023-05-09T23:41:37.556Z,9.23
2023-05-09T23:44:03.952Z,9.21
2023-05-09T23:46:30.414Z,9.19
2023-05-09T23:48:57.286Z,9.12
2023-05-09T23:51:23.746Z,9.14
2023-05-09T23:53:50.703Z,9.10
2023-05-09T23:56:17.305Z,9.07
2023-05-09T23:58:43.743Z,9.00
